Data for 11/21/2006

Time Sea-Level Adjusted Pressure Absolute Pressure Temperature Relative Humidity Dew Point   
(mb) (inHg) (mb) (inHg) (C) (F) (%) (C) (F)
00:05 1017 30.03 846 24.98 6.1 43 50 -3.4 25.8
00:10 1017 30.03 846 24.98 6.1 42.9 52 -3.2 26.3
00:15 1017 30.03 846 24.98 5.8 42.4 53 -3.1 26.5
00:20 1017 30.03 846 24.98 6 42.7 50 -3.5 25.6
00:25 1016 30 846 24.98 6.5 43.6 50 -3.1 26.4
00:30 1016 30 846 24.98 6.4 43.5 51 -3 26.5
00:35 1016 30 846 24.98 6.3 43.3 51 -3 26.5
00:40 1016 30 846 24.98 6.4 43.5 50 -3.2 26.2
00:45 1016 30 846 24.98 6.8 44.2 49 -3.1 26.4
00:50 1016 30 845 24.95 6.7 44.1 50 -3 26.6
00:55 1016 30 845 24.95 6.7 44.1 50 -3 26.6
01:00 1016 30 845 24.95 6.8 44.3 50 -3 26.7
01:05 1016 30 845 24.95 6.9 44.4 49 -3 26.6
01:10 1016 30 845 24.95 7 44.6 49 -2.9 26.7
01:15 1016 30 845 24.95 6.9 44.5 49 -2.9 26.7
01:20 1016 30 845 24.95 7 44.7 49 -2.9 26.8
01:25 1016 30 845 24.95 7 44.6 50 -2.8 26.9
01:30 1016 30 845 24.95 7 44.6 49 -2.9 26.8
01:35 1016 30 845 24.95 7 44.7 49 -2.8 27
01:40 1016 30 845 24.95 7.1 44.8 49 -2.8 26.9
01:45 1015 29.97 845 24.95 7.1 44.7 50 -2.6 27.2
01:50 1015 29.97 845 24.95 6.8 44.3 51 -2.6 27.3
01:55 1015 29.97 844 24.92 6.8 44.3 51 -2.7 27.1
02:00 1015 29.97 844 24.92 7 44.6 49 -2.8 26.9
02:05 1015 29.97 844 24.92 7.1 44.7 50 -2.6 27.4
02:10 1015 29.97 844 24.92 7 44.6 50 -2.6 27.3
02:15 1015 29.97 844 24.92 7.2 44.9 49 -2.7 27.1
02:20 1015 29.97 844 24.92 7.4 45.3 49 -2.7 27.2
02:25 1015 29.97 844 24.92 7.4 45.4 50 -2.4 27.7
02:30 1015 29.97 844 24.92 7.4 45.4 49 -2.6 27.3
02:35 1015 29.97 845 24.95 7.8 46.1 47 -2.9 26.8
02:40 1015 29.97 844 24.92 8 46.5 47 -2.6 27.4
02:45 1015 29.97 844 24.92 8.2 46.7 46 -2.6 27.3
02:50 1015 29.97 845 24.95 8.3 47 45 -2.9 26.7
02:55 1015 29.97 845 24.95 9 48.1 44 -2.6 27.3
03:00 1015 29.97 845 24.95 9.3 48.8 44 -2.2 28
03:05 1015 29.97 844 24.92 10.2 50.4 43 -1.9 28.6
03:10 1015 29.97 844 24.92 10.4 50.7 43 -1.6 29.1
03:15 1015 29.97 844 24.92 10.2 50.4 43 -1.6 29.1
03:20 1015 29.97 844 24.92 10.2 50.4 44 -1.4 29.6
03:25 1015 29.97 844 24.92 10 50 45 -1.3 29.7
03:30 1015 29.97 844 24.92 9.8 49.7 47 -0.9 30.4
03:35 1015 29.97 844 24.92 9.3 48.7 47 -1.3 29.7
03:40 1015 29.97 844 24.92 9.6 49.2 44 -2 28.4
03:45 1015 29.97 844 24.92 10 49.9 44 -1.6 29.1
03:50 1015 29.97 844 24.92 9.9 49.7 44 -1.7 29
03:55 1015 29.97 844 24.92 9.9 49.8 44 -1.8 28.7
04:00 1015 29.97 845 24.95 10.2 50.3 44 -1.4 29.5
04:05 1016 30 845 24.95 10.3 50.5 49 0.2 32.3
04:10 1016 30 845 24.95 9.8 49.7 55 1.3 34.3
04:15 1016 30 845 24.95 9.2 48.6 62 2.4 36.3
04:20 1016 30 845 24.95 8.8 47.8 62 1.9 35.4
04:25 1016 30 845 24.95 8.7 47.7 59 1.3 34.3
04:30 1015 29.97 844 24.92 8.6 47.4 61 1.6 34.9
04:35 1015 29.97 844 24.92 8.3 46.9 63 1.7 35.1
04:40 1015 29.97 844 24.92 8 46.4 65 2 35.5
04:45 1015 29.97 844 24.92 7.5 45.6 68 2 35.5
04:50 1015 29.97 844 24.92 7.1 44.8 69 1.8 35.3
04:55 1015 29.97 844 24.92 6.8 44.2 69 1.6 34.9
05:00 1015 29.97 844 24.92 6.6 44 69 1.4 34.5
05:05 1015 29.97 844 24.92 6.7 44.1 68 1.3 34.4
05:10 1015 29.97 844 24.92 6.7 44.1 67 1.1 33.9
05:15 1015 29.97 844 24.92 6.8 44.2 66 1 33.8
05:20 1015 29.97 844 24.92 6.8 44.3 66 0.9 33.5
05:25 1015 29.97 844 24.92 6.8 44.2 65 0.6 33.2
05:30 1015 29.97 844 24.92 6.9 44.4 65 0.8 33.5
05:35 1015 29.97 844 24.92 6.4 43.5 68 0.9 33.6
05:40 1015 29.97 844 24.92 6.1 43 70 1 33.8
05:45 1015 29.97 844 24.92 5.9 42.7 71 1 33.9
05:50 1015 29.97 844 24.92 6 42.8 70 0.8 33.5
05:55 1015 29.97 844 24.92 6.1 43 69 0.9 33.6
06:00 1015 29.97 844 24.92 6.1 43 69 0.9 33.7
06:05 1015 29.97 844 24.92 6.2 43.2 69 0.9 33.7
06:10 1015 29.97 844 24.92 6.2 43.2 69 1 33.8
06:15 1015 29.97 844 24.92 6.3 43.3 69 1 33.7
06:20 1015 29.97 844 24.92 6.3 43.4 68 0.8 33.5
06:25 1015 29.97 844 24.92 6.6 43.9 67 0.9 33.5
06:30 1015 29.97 844 24.92 6.6 43.8 67 1 33.8
06:35 1014 29.94 844 24.92 6.5 43.7 67 0.9 33.7
06:40 1014 29.94 844 24.92 6.4 43.5 68 1 33.8
06:45 1014 29.94 844 24.92 6.4 43.5 68 0.9 33.6
06:50 1014 29.94 844 24.92 6.4 43.4 68 0.9 33.6
06:55 1014 29.94 844 24.92 6.4 43.4 68 0.9 33.6
07:00 1014 29.94 844 24.92 6.3 43.4 67 0.7 33.3
07:05 1014 29.94 844 24.92 6.6 44 66 0.7 33.2
07:10 1014 29.94 844 24.92 6.9 44.3 65 0.7 33.3
07:15 1014 29.94 843 24.89 6.9 44.4 66 0.9 33.6
07:20 1014 29.94 844 24.92 6.9 44.4 65 0.7 33.3
07:25 1014 29.94 843 24.89 7.1 44.7 64 0.7 33.3
07:30 1014 29.94 843 24.89 6.9 44.3 66 0.9 33.7
07:35 1014 29.94 843 24.89 6.6 43.9 66 0.8 33.4
07:40 1014 29.94 843 24.89 6.9 44.4 65 0.7 33.3
07:45 1014 29.94 843 24.89 6.8 44.3 65 0.7 33.3
07:50 1014 29.94 844 24.92 6.6 43.9 66 0.8 33.4
07:55 1014 29.94 843 24.89 6.2 43.2 68 0.8 33.4
08:00 1014 29.94 843 24.89 6 42.7 68 0.6 33
08:05 1014 29.94 844 24.92 6 42.9 68 0.5 32.9
08:10 1014 29.94 844 24.92 6 42.8 68 0.5 32.9
08:15 1014 29.94 844 24.92 5.9 42.6 69 0.6 33
08:20 1015 29.97 844 24.92 5.8 42.5 68 0.4 32.7
08:25 1015 29.97 844 24.92 5.8 42.5 68 0.3 32.5
08:30 1015 29.97 844 24.92 6.1 42.9 66 0.2 32.4
08:35 1014 29.94 844 24.92 5.9 42.6 69 0.6 33.1
08:40 1014 29.94 844 24.92 5.7 42.2 69 0.4 32.7
08:45 1014 29.94 844 24.92 5.8 42.4 68 0.4 32.7
08:50 1014 29.94 844 24.92 5.8 42.5 68 0.4 32.7
08:55 1014 29.94 844 24.92 5.7 42.3 70 0.6 33.1
09:00 1014 29.94 843 24.89 5.6 42 70 0.5 32.9
09:05 1014 29.94 843 24.89 5.7 42.3 70 0.6 33.1
09:10 1014 29.94 843 24.89 5.7 42.3 69 0.5 32.9
09:15 1014 29.94 843 24.89 5.7 42.2 69 0.6 33
09:20 1014 29.94 843 24.89 5.6 42 70 0.5 32.9
09:25 1014 29.94 843 24.89 5.6 42 70 0.6 33
09:30 1014 29.94 844 24.92 5.7 42.2 69 0.4 32.8
09:35 1014 29.94 844 24.92 5.8 42.4 68 0.4 32.7
09:40 1015 29.97 844 24.92 6 42.8 67 0.4 32.7
09:45 1015 29.97 844 24.92 6.2 43.1 67 0.5 32.9
09:50 1015 29.97 844 24.92 6.1 43.1 67 0.5 33
09:55 1015 29.97 844 24.92 6.2 43.2 67 0.5 32.9
10:00 1015 29.97 844 24.92 6.5 43.7 65 0.5 32.8
10:05 1015 29.97 844 24.92 6.6 43.8 67 0.8 33.5
10:10 1015 29.97 844 24.92 6.3 43.3 67 0.7 33.2
10:15 1015 29.97 844 24.92 6.3 43.3 67 0.7 33.3
10:20 1015 29.97 844 24.92 6.3 43.3 67 0.5 32.9
10:25 1015 29.97 844 24.92 6.5 43.6 66 0.5 32.9
10:30 1015 29.97 844 24.92 6.6 43.9 65 0.4 32.8
10:35 1015 29.97 844 24.92 6.8 44.2 64 0.6 33
10:40 1015 29.97 844 24.92 6.9 44.4 64 0.6 33
10:45 1015 29.97 844 24.92 7 44.6 64 0.7 33.2
10:50 1015 29.97 844 24.92 7 44.6 63 0.3 32.6
10:55 1014 29.94 844 24.92 7.3 45.1 61 0.2 32.4
11:00 1014 29.94 844 24.92 7.6 45.7 60 0.5 32.9
11:05 1014 29.94 844 24.92 7.6 45.7 61 0.7 33.2
11:10 1014 29.94 843 24.89 7.6 45.7 61 0.6 33.1
11:15 1014 29.94 843 24.89 7.6 45.6 61 0.6 33.2
11:20 1014 29.94 843 24.89 7.6 45.6 61 0.5 33
11:25 1014 29.94 843 24.89 7.7 45.9 60 0.4 32.8
11:30 1014 29.94 843 24.89 7.7 45.8 60 0.5 32.9
11:35 1014 29.94 843 24.89 7.7 45.8 60 0.5 32.8
11:40 1014 29.94 843 24.89 7.9 46.1 59 0.4 32.6
11:45 1014 29.94 843 24.89 7.9 46.2 59 0.5 32.9
11:50 1014 29.94 843 24.89 7.9 46.2 59 0.4 32.8
11:55 1014 29.94 843 24.89 8 46.5 58 0.4 32.7
12:00 1013 29.91 843 24.89 8.2 46.8 58 0.5 32.9
12:05 1013 29.91 842 24.86 8.3 47 58 0.5 32.8
12:10 1013 29.91 842 24.86 8.6 47.5 55 0.2 32.4
12:15 1013 29.91 842 24.86 8.9 48 54 0.1 32.2
12:20 1013 29.91 842 24.86 8.9 48.1 55 0.4 32.6
12:25 1013 29.91 842 24.86 8.9 48 55 0.4 32.7
12:30 1013 29.91 842 24.86 8.9 48 53 -0.1 31.9
12:35 1013 29.91 842 24.86 9.2 48.5 53 0.1 32.2
12:40 1013 29.91 842 24.86 9.5 49 52 0.3 32.5
12:45 1013 29.91 842 24.86 9.6 49.4 48 -0.7 30.8
12:50 1013 29.91 842 24.86 9.8 49.6 51 0.2 32.4
12:55 1013 29.91 842 24.86 10 49.9 46 -1.2 29.9
13:00 1013 29.91 842 24.86 10.7 51.3 40 -2.3 27.9
13:05 1013 29.91 842 24.86 11.3 52.3 39 -2.1 28.2
13:10 1013 29.91 842 24.86 11.3 52.4 40 -1.8 28.8
13:15 1013 29.91 842 24.86 11.4 52.5 39 -2.1 28.2
13:20 1013 29.91 842 24.86 11.6 52.8 39 -1.9 28.6
13:25 1012 29.88 842 24.86 11.5 52.7 39 -1.8 28.8
13:30 1012 29.88 842 24.86 11.4 52.5 42 -1.1 30
13:35 1012 29.88 842 24.86 11.2 52.1 43 -1 30.3
13:40 1012 29.88 841 24.83 11 51.8 45 -0.3 31.4
13:45 1012 29.88 841 24.83 10.6 51 46 -0.4 31.3
13:50 1012 29.88 841 24.83 10.1 50.2 49 -0.1 31.9
13:55 1012 29.88 842 24.86 9.8 49.6 50 -0.3 31.5
14:00 1012 29.88 842 24.86 9.7 49.4 50 -0.3 31.4
14:05 1013 29.91 842 24.86 9.8 49.6 50 -0.2 31.6
14:10 1013 29.91 842 24.86 9.6 49.2 50 -0.4 31.3
14:15 1013 29.91 842 24.86 9.6 49.2 49 -0.6 31
14:20 1013 29.91 842 24.86 9.9 49.7 46 -1.1 30
14:25 1013 29.91 842 24.86 10.2 50.4 46 -0.8 30.6
14:30 1013 29.91 842 24.86 10.1 50.2 46 -1 30.2
14:35 1013 29.91 842 24.86 9.9 49.7 47 -0.8 30.6
14:40 1013 29.91 842 24.86 9.8 49.6 47 -0.9 30.3
14:45 1012 29.88 842 24.86 10 50.1 46 -1.1 30
14:50 1012 29.88 841 24.83 10.3 50.6 43 -1.5 29.3
14:55 1012 29.88 841 24.83 10.6 51.1 41 -1.9 28.6
15:00 1012 29.88 841 24.83 11.3 52.3 30 -5.6 21.9
15:05 1012 29.88 841 24.83 12.3 54.2 28 -5.5 22.2
15:10 1012 29.88 841 24.83 12.5 54.5 29 -5.2 22.6
15:15 1012 29.88 841 24.83 12.5 54.5 28 -5.2 22.6
15:20 1012 29.88 841 24.83 12.5 54.5 29 -5.2 22.6
15:25 1012 29.88 841 24.83 12.6 54.6 27 -6.1 21
15:30 1011 29.85 841 24.83 12.8 55 26 -6.3 20.6
15:35 1011 29.85 841 24.83 12.9 55.2 26 -6.2 20.8
15:40 1012 29.88 841 24.83 12.7 54.8 28 -5.4 22.4
15:45 1012 29.88 841 24.83 12.4 54.2 28 -5.8 21.6
15:50 1012 29.88 841 24.83 12.4 54.3 29 -5.2 22.6
15:55 1012 29.88 841 24.83 12.3 54.2 26 -6.5 20.4
16:00 1012 29.88 841 24.83 12.7 54.9 26 -6.3 20.7
16:05 1012 29.88 841 24.83 12.7 54.8 28 -5.5 22.1
16:10 1012 29.88 841 24.83 12.4 54.3 28 -5.5 22.1
16:15 1012 29.88 841 24.83 12.2 53.9 28 -5.6 22
16:20 1012 29.88 841 24.83 12.1 53.8 28 -5.9 21.4
16:25 1012 29.88 841 24.83 12.2 54 27 -6 21.3
16:30 1012 29.88 841 24.83 12.3 54.1 28 -5.6 21.9
16:35 1012 29.88 841 24.83 12.2 54 29 -5.2 22.6
16:40 1012 29.88 841 24.83 11.9 53.4 29 -5.7 21.7
16:45 1012 29.88 841 24.83 11.9 53.3 29 -5.7 21.7
16:50 1012 29.88 841 24.83 11.8 53.2 30 -5.2 22.7
16:55 1012 29.88 841 24.83 11.5 52.8 29 -5.9 21.3
17:00 1012 29.88 841 24.83 11.4 52.5 31 -5.2 22.7
17:05 1012 29.88 841 24.83 11.4 52.5 30 -5.7 21.7
17:10 1012 29.88 841 24.83 11.5 52.6 30 -5.5 22.2
17:15 1012 29.88 841 24.83 11 51.8 32 -5.1 22.8
17:20 1012 29.88 841 24.83 10.7 51.3 31 -5.7 21.8
17:25 1012 29.88 841 24.83 10.8 51.4 32 -5.1 22.9
17:30 1012 29.88 841 24.83 10.4 50.7 32 -5.5 22
17:35 1011 29.85 841 24.83 10.5 50.8 31 -6 21.1
17:40 1011 29.85 841 24.83 10.8 51.4 31 -5.5 22.1
17:45 1011 29.85 840 24.81 10.8 51.4 30 -6.2 20.9
17:50 1011 29.85 840 24.81 11.2 52.1 29 -6 21.3
17:55 1011 29.85 840 24.81 11.3 52.3 29 -6.2 20.9
18:00 1011 29.85 840 24.81 11.4 52.5 29 -6 21.1
18:05 1011 29.85 840 24.81 11.2 52.2 29 -6.1 21.1
18:10 1011 29.85 840 24.81 11.4 52.5 28 -6.4 20.5
18:15 1011 29.85 840 24.81 11.6 52.9 29 -5.9 21.3
18:20 1011 29.85 840 24.81 11.6 53 29 -5.9 21.4
18:25 1011 29.85 840 24.81 11.4 52.5 28 -6.3 20.7
18:30 1011 29.85 840 24.81 11.3 52.3 30 -5.8 21.6
18:35 1011 29.85 840 24.81 11.1 52 29 -6.1 21.1
18:40 1011 29.85 840 24.81 10.9 51.7 30 -6 21.3
18:45 1011 29.85 840 24.81 11 51.8 30 -6.1 21
18:50 1011 29.85 840 24.81 11.3 52.3 28 -6.5 20.3
18:55 1011 29.85 840 24.81 11.4 52.5 29 -5.9 21.4
19:00 1011 29.85 840 24.81 11.2 52.1 29 -6.1 21.1
19:05 1011 29.85 840 24.81 11.1 52 30 -6 21.3
19:10 1011 29.85 840 24.81 10.8 51.4 30 -6 21.3
19:15 1011 29.85 840 24.81 10.8 51.4 30 -6.2 20.8
19:20 1011 29.85 840 24.81 10.5 50.9 32 -5.6 21.9
19:25 1011 29.85 840 24.81 10.2 50.4 31 -6.3 20.7
19:30 1010 29.83 840 24.81 10.7 51.2 30 -6.3 20.7
19:35 1011 29.85 840 24.81 10.7 51.2 30 -6 21.3
19:40 1011 29.85 840 24.81 10.6 51 30 -6.1 21
19:45 1011 29.85 840 24.81 10.7 51.2 31 -5.9 21.4
19:50 1011 29.85 840 24.81 10.8 51.4 30 -6.3 20.7
19:55 1011 29.85 840 24.81 10.7 51.2 31 -5.9 21.4
20:00 1011 29.85 840 24.81 10.4 50.8 31 -6 21.1
20:05 1011 29.85 840 24.81 10.5 50.8 30 -6.2 20.8
20:10 1011 29.85 840 24.81 10.7 51.2 31 -5.9 21.4
20:15 1011 29.85 840 24.81 10.4 50.7 31 -5.9 21.3
20:20 1011 29.85 840 24.81 10.4 50.7 31 -6.2 20.9
20:25 1011 29.85 840 24.81 10.5 50.9 31 -6 21.3
20:30 1011 29.85 840 24.81 10.3 50.6 31 -6 21.2
20:35 1011 29.85 840 24.81 10.2 50.4 31 -6 21.1
20:40 1011 29.85 840 24.81 10.3 50.6 29 -6.9 19.6
20:45 1011 29.85 840 24.81 10.9 51.6 28 -7 19.4
20:50 1011 29.85 840 24.81 11.3 52.3 26 -7.7 18.1
20:55 1011 29.85 840 24.81 11.6 52.9 25 -7.5 18.5
21:00 1011 29.85 840 24.81 11.6 52.9 25 -7.7 18.2
21:05 1011 29.85 840 24.81 11.5 52.7 26 -7.6 18.4
21:10 1011 29.85 840 24.81 11.3 52.3 26 -7.3 18.9
21:15 1011 29.85 840 24.81 11.1 52 26 -7.9 17.8
21:20 1011 29.85 840 24.81 11.4 52.5 25 -7.7 18.2
21:25 1011 29.85 840 24.81 11.2 52.2 26 -7.4 18.7
21:30 1011 29.85 840 24.81 11 51.7 28 -6.6 20.1
21:35 1011 29.85 840 24.81 10.3 50.5 30 -6.5 20.3
21:40 1011 29.85 840 24.81 10.2 50.3 30 -6.7 20
21:45 1011 29.85 840 24.81 10 50 31 -6.4 20.5
21:50 1011 29.85 840 24.81 9.8 49.6 31 -6.6 20.2
21:55 1011 29.85 840 24.81 9.9 49.9 29 -7.3 18.8
22:00 1011 29.85 840 24.81 10.3 50.5 30 -6.5 20.3
22:05 1011 29.85 840 24.81 10.1 50.3 28 -7.5 18.6
22:10 1011 29.85 840 24.81 10.6 51 28 -7.1 19.2
22:15 1011 29.85 840 24.81 10.5 50.9 28 -7.3 18.8
22:20 1011 29.85 840 24.81 10.5 50.9 28 -7 19.3
22:25 1011 29.85 840 24.81 10.4 50.8 28 -7.2 19.1
22:30 1011 29.85 840 24.81 10.5 50.8 28 -7.3 18.9
22:35 1011 29.85 840 24.81 10.8 51.4 27 -7.3 18.8
22:40 1011 29.85 840 24.81 11 51.8 27 -7.1 19.3
22:45 1011 29.85 840 24.81 11 51.8 27 -7.2 19
22:50 1011 29.85 840 24.81 10.9 51.6 28 -7.1 19.3
22:55 1011 29.85 840 24.81 10.8 51.4 28 -7.1 19.3
23:00 1011 29.85 840 24.81 10.6 51.1 27 -7.5 18.5
23:05 1011 29.85 840 24.81 10.6 51.1 28 -7.4 18.7
23:10 1011 29.85 840 24.81 10.7 51.3 27 -7.4 18.6
23:15 1011 29.85 840 24.81 10.4 50.8 28 -7.4 18.7
23:20 1011 29.85 840 24.81 10.2 50.4 28 -7.7 18.2
23:25 1011 29.85 840 24.81 10.3 50.5 28 -7.6 18.3
23:30 1011 29.85 840 24.81 10.3 50.5 27 -8.1 17.5
23:35 1011 29.85 840 24.81 10.4 50.8 26 -8.1 17.5
23:40 1011 29.85 840 24.81 10.2 50.4 27 -7.9 17.8
23:45 1011 29.85 840 24.81 10 50 28 -7.9 17.9
23:50 1011 29.85 840 24.81 9.8 49.6 28 -7.7 18.1
23:55 1011 29.85 840 24.81 9.7 49.4 28 -7.9 17.9
24:00 1011 29.85 840 24.81 9.6 49.3 29 -7.8 18